sensor_id;sensor_type;location;lat;lon;timestamp;pressure;altitude;pressure_sealevel;temperature;humidity
9009;BME280;62813;51.424;6.762;2022-12-29T00:00:05;100061.09;;;10.37;88.73
9009;BME280;62813;51.424;6.762;2022-12-29T00:02:35;100055.00;;;10.38;89.91
9009;BME280;62813;51.424;6.762;2022-12-29T00:05:01;100054.28;;;10.34;90.47
9009;BME280;62813;51.424;6.762;2022-12-29T00:07:28;100038.06;;;10.31;91.42
9009;BME280;62813;51.424;6.762;2022-12-29T00:09:55;100037.47;;;10.26;92.19
9009;BME280;62813;51.424;6.762;2022-12-29T00:12:21;100036.78;;;10.22;92.50
9009;BME280;62813;51.424;6.762;2022-12-29T00:14:48;100022.28;;;10.18;93.00
9009;BME280;62813;51.424;6.762;2022-12-29T00:17:33;100029.31;;;10.16;93.12
9009;BME280;62813;51.424;6.762;2022-12-29T00:20:00;100023.34;;;10.14;93.43
9009;BME280;62813;51.424;6.762;2022-12-29T00:22:45;100023.44;;;10.13;93.71
9009;BME280;62813;51.424;6.762;2022-12-29T00:25:30;100015.66;;;10.13;93.50
9009;BME280;62813;51.424;6.762;2022-12-29T00:28:26;100013.84;;;10.15;93.29
9009;BME280;62813;51.424;6.762;2022-12-29T00:31:11;100015.25;;;10.20;92.89
9009;BME280;62813;51.424;6.762;2022-12-29T00:33:57;100005.72;;;10.21;92.58
9009;BME280;62813;51.424;6.762;2022-12-29T00:36:43;100011.53;;;10.26;92.56
9009;BME280;62813;51.424;6.762;2022-12-29T00:39:13;100000.31;;;10.25;92.56
9009;BME280;62813;51.424;6.762;2022-12-29T00:42:07;99995.88;;;10.27;92.20
9009;BME280;62813;51.424;6.762;2022-12-29T00:45:06;99992.03;;;10.34;91.93
9009;BME280;62813;51.424;6.762;2022-12-29T00:47:33;99986.19;;;10.31;92.64
9009;BME280;62813;51.424;6.762;2022-12-29T00:49:59;99997.56;;;10.28;93.52
9009;BME280;62813;51.424;6.762;2022-12-29T00:52:26;99995.22;;;10.24;94.53
9009;BME280;62813;51.424;6.762;2022-12-29T00:54:53;99985.81;;;10.21;95.28
9009;BME280;62813;51.424;6.762;2022-12-29T00:57:19;99981.81;;;10.16;95.88
9009;BME280;62813;51.424;6.762;2022-12-29T00:59:46;99973.31;;;10.12;96.46
9009;BME280;62813;51.424;6.762;2022-12-29T01:02:12;99987.13;;;10.13;96.48
9009;BME280;62813;51.424;6.762;2022-12-29T01:04:39;99983.69;;;10.12;96.25
9009;BME280;62813;51.424;6.762;2022-12-29T01:07:06;99960.13;;;10.17;95.25
9009;BME280;62813;51.424;6.762;2022-12-29T01:09:33;99966.25;;;10.16;95.01
9009;BME280;62813;51.424;6.762;2022-12-29T01:12:18;99974.38;;;10.25;93.92
9009;BME280;62813;51.424;6.762;2022-12-29T01:15:08;99972.63;;;10.26;93.66
9009;BME280;62813;51.424;6.762;2022-12-29T01:17:38;99981.09;;;10.29;92.95
9009;BME280;62813;51.424;6.762;2022-12-29T01:20:05;99965.44;;;10.31;92.71
9009;BME280;62813;51.424;6.762;2022-12-29T01:22:32;99970.31;;;10.37;91.67
9009;BME280;62813;51.424;6.762;2022-12-29T01:24:59;99961.53;;;10.40;91.56
9009;BME280;62813;51.424;6.762;2022-12-29T01:27:25;99962.22;;;10.43;90.97
9009;BME280;62813;51.424;6.762;2022-12-29T01:29:52;99957.59;;;10.48;90.29
9009;BME280;62813;51.424;6.762;2022-12-29T01:32:19;99956.53;;;10.52;89.61
9009;BME280;62813;51.424;6.762;2022-12-29T01:34:45;99945.13;;;10.55;89.48
9009;BME280;62813;51.424;6.762;2022-12-29T01:37:12;99946.75;;;10.57;89.02
9009;BME280;62813;51.424;6.762;2022-12-29T01:39:42;99951.75;;;10.60;88.64
9009;BME280;62813;51.424;6.762;2022-12-29T01:42:16;99959.81;;;10.72;87.30
9009;BME280;62813;51.424;6.762;2022-12-29T01:45:04;99942.56;;;10.71;87.89
9009;BME280;62813;51.424;6.762;2022-12-29T01:47:37;99931.25;;;10.72;86.77
9009;BME280;62813;51.424;6.762;2022-12-29T01:50:17;99936.28;;;10.75;86.90
9009;BME280;62813;51.424;6.762;2022-12-29T01:52:52;99939.38;;;10.81;86.40
9009;BME280;62813;51.424;6.762;2022-12-29T01:55:21;99934.38;;;10.78;86.35
9009;BME280;62813;51.424;6.762;2022-12-29T01:57:51;99931.69;;;10.80;85.99
9009;BME280;62813;51.424;6.762;2022-12-29T02:00:19;99928.34;;;10.78;85.82
9009;BME280;62813;51.424;6.762;2022-12-29T02:02:49;99923.88;;;10.80;85.93
9009;BME280;62813;51.424;6.762;2022-12-29T02:05:29;99940.38;;;10.79;85.71
9009;BME280;62813;51.424;6.762;2022-12-29T02:07:59;99944.56;;;10.81;85.04
9009;BME280;62813;51.424;6.762;2022-12-29T02:10:30;99944.75;;;10.78;85.33
9009;BME280;62813;51.424;6.762;2022-12-29T02:12:59;99933.53;;;10.78;85.25
9009;BME280;62813;51.424;6.762;2022-12-29T02:18:23;99922.97;;;10.81;84.92
9009;BME280;62813;51.424;6.762;2022-12-29T02:38:18;99912.41;;;10.84;83.39
9009;BME280;62813;51.424;6.762;2022-12-29T02:41:07;99892.41;;;10.86;83.49
9009;BME280;62813;51.424;6.762;2022-12-29T02:43:41;99911.31;;;10.88;82.44
9009;BME280;62813;51.424;6.762;2022-12-29T02:49:12;99898.97;;;10.93;82.14
9009;BME280;62813;51.424;6.762;2022-12-29T02:51:51;99918.81;;;10.94;82.14
9009;BME280;62813;51.424;6.762;2022-12-29T02:54:23;99909.16;;;10.96;81.49
9009;BME280;62813;51.424;6.762;2022-12-29T02:57:30;99897.69;;;11.00;81.02
9009;BME280;62813;51.424;6.762;2022-12-29T03:00:06;99895.84;;;11.02;80.66
9009;BME280;62813;51.424;6.762;2022-12-29T03:08:23;99892.16;;;11.06;80.68
9009;BME280;62813;51.424;6.762;2022-12-29T03:11:06;99888.63;;;11.07;80.56
9009;BME280;62813;51.424;6.762;2022-12-29T03:13:59;99896.56;;;11.04;80.72
9009;BME280;62813;51.424;6.762;2022-12-29T03:19:48;99885.25;;;11.05;80.86
9009;BME280;62813;51.424;6.762;2022-12-29T03:22:21;99873.06;;;11.07;80.92
9009;BME280;62813;51.424;6.762;2022-12-29T03:25:09;99867.91;;;11.06;80.77
9009;BME280;62813;51.424;6.762;2022-12-29T03:27:58;99867.09;;;11.05;80.86
9009;BME280;62813;51.424;6.762;2022-12-29T03:30:29;99865.41;;;11.04;80.92
9009;BME280;62813;51.424;6.762;2022-12-29T03:33:02;99873.22;;;11.04;80.76
9009;BME280;62813;51.424;6.762;2022-12-29T03:35:34;99861.81;;;11.07;81.01
9009;BME280;62813;51.424;6.762;2022-12-29T03:38:23;99862.81;;;11.04;81.37
9009;BME280;62813;51.424;6.762;2022-12-29T03:40:56;99866.09;;;11.08;81.28
9009;BME280;62813;51.424;6.762;2022-12-29T03:43:23;99878.16;;;11.09;81.12
9009;BME280;62813;51.424;6.762;2022-12-29T03:45:50;99871.38;;;11.06;81.61
9009;BME280;62813;51.424;6.762;2022-12-29T03:48:17;99880.00;;;11.07;81.94
9009;BME280;62813;51.424;6.762;2022-12-29T03:50:44;99858.41;;;11.06;81.85
9009;BME280;62813;51.424;6.762;2022-12-29T03:53:10;99856.69;;;11.05;81.83
9009;BME280;62813;51.424;6.762;2022-12-29T03:55:37;99845.41;;;11.06;82.31
9009;BME280;62813;51.424;6.762;2022-12-29T03:58:05;99844.72;;;11.03;82.07
9009;BME280;62813;51.424;6.762;2022-12-29T04:00:32;99834.53;;;11.00;82.73
9009;BME280;62813;51.424;6.762;2022-12-29T04:02:59;99834.44;;;11.01;82.51
9009;BME280;62813;51.424;6.762;2022-12-29T04:05:26;99836.84;;;11.04;82.27
9009;BME280;62813;51.424;6.762;2022-12-29T04:07:53;99832.44;;;11.06;81.77
9009;BME280;62813;51.424;6.762;2022-12-29T04:10:19;99814.41;;;11.03;82.46
9009;BME280;62813;51.424;6.762;2022-12-29T04:12:46;99825.72;;;11.02;82.75
9009;BME280;62813;51.424;6.762;2022-12-29T04:15:13;99815.25;;;11.04;82.45
9009;BME280;62813;51.424;6.762;2022-12-29T04:17:39;99803.88;;;11.06;81.64
9009;BME280;62813;51.424;6.762;2022-12-29T04:20:06;99801.91;;;11.10;81.64
9009;BME280;62813;51.424;6.762;2022-12-29T04:23:06;99814.72;;;11.13;81.61
9009;BME280;62813;51.424;6.762;2022-12-29T04:25:33;99806.84;;;11.14;81.27
9009;BME280;62813;51.424;6.762;2022-12-29T04:28:00;99819.19;;;11.25;80.52
9009;BME280;62813;51.424;6.762;2022-12-29T04:30:26;99813.00;;;11.28;80.22
9009;BME280;62813;51.424;6.762;2022-12-29T04:32:53;99819.88;;;11.29;80.42
9009;BME280;62813;51.424;6.762;2022-12-29T04:35:20;99819.88;;;11.29;80.35
9009;BME280;62813;51.424;6.762;2022-12-29T04:37:47;99818.00;;;11.31;80.24
9009;BME280;62813;51.424;6.762;2022-12-29T04:40:13;99801.38;;;11.33;79.98
9009;BME280;62813;51.424;6.762;2022-12-29T04:42:40;99816.06;;;11.34;79.76
9009;BME280;62813;51.424;6.762;2022-12-29T04:45:07;99811.50;;;11.38;79.56
9009;BME280;62813;51.424;6.762;2022-12-29T04:47:36;99808.66;;;11.42;78.98
9009;BME280;62813;51.424;6.762;2022-12-29T04:50:03;99821.56;;;11.44;78.52
9009;BME280;62813;51.424;6.762;2022-12-29T04:52:30;99826.84;;;11.42;78.67
9009;BME280;62813;51.424;6.762;2022-12-29T04:54:57;99822.66;;;11.40;78.99
9009;BME280;62813;51.424;6.762;2022-12-29T04:57:24;99837.41;;;11.39;78.55
9009;BME280;62813;51.424;6.762;2022-12-29T04:59:50;99846.97;;;11.39;78.24
9009;BME280;62813;51.424;6.762;2022-12-29T05:02:17;99833.22;;;11.37;78.27
9009;BME280;62813;51.424;6.762;2022-12-29T05:04:44;99834.91;;;11.38;77.82
9009;BME280;62813;51.424;6.762;2022-12-29T05:07:11;99838.06;;;11.43;77.61
9009;BME280;62813;51.424;6.762;2022-12-29T05:09:38;99830.38;;;11.41;77.33
9009;BME280;62813;51.424;6.762;2022-12-29T05:12:05;99832.88;;;11.43;77.35
9009;BME280;62813;51.424;6.762;2022-12-29T05:14:32;99848.28;;;11.46;76.32
9009;BME280;62813;51.424;6.762;2022-12-29T05:16:59;99836.00;;;11.48;76.47
9009;BME280;62813;51.424;6.762;2022-12-29T05:19:25;99873.91;;;11.52;75.77
9009;BME280;62813;51.424;6.762;2022-12-29T05:21:52;99861.84;;;11.51;75.64
9009;BME280;62813;51.424;6.762;2022-12-29T05:24:19;99880.97;;;11.50;75.47
9009;BME280;62813;51.424;6.762;2022-12-29T05:26:45;99873.16;;;11.50;74.40
9009;BME280;62813;51.424;6.762;2022-12-29T05:29:17;99878.53;;;11.47;74.13
9009;BME280;62813;51.424;6.762;2022-12-29T05:31:44;99884.06;;;11.41;74.78
9009;BME280;62813;51.424;6.762;2022-12-29T05:34:11;99889.28;;;11.41;74.29
9009;BME280;62813;51.424;6.762;2022-12-29T05:36:38;99890.19;;;11.40;72.97
9009;BME280;62813;51.424;6.762;2022-12-29T05:39:05;99888.63;;;11.37;72.82
9009;BME280;62813;51.424;6.762;2022-12-29T05:41:34;99892.25;;;11.35;72.67
9009;BME280;62813;51.424;6.762;2022-12-29T05:44:01;99888.81;;;11.34;72.49
9009;BME280;62813;51.424;6.762;2022-12-29T05:46:28;99902.81;;;11.32;72.40
9009;BME280;62813;51.424;6.762;2022-12-29T05:48:55;99898.63;;;11.29;72.87
9009;BME280;62813;51.424;6.762;2022-12-29T05:51:22;99903.09;;;11.27;73.35
9009;BME280;62813;51.424;6.762;2022-12-29T05:53:48;99902.41;;;11.24;74.30
9009;BME280;62813;51.424;6.762;2022-12-29T05:56:15;99903.50;;;11.20;74.77
9009;BME280;62813;51.424;6.762;2022-12-29T05:58:42;99901.34;;;11.12;75.63
9009;BME280;62813;51.424;6.762;2022-12-29T06:01:09;99914.59;;;11.07;76.00
9009;BME280;62813;51.424;6.762;2022-12-29T06:03:35;99922.00;;;10.99;76.85
9009;BME280;62813;51.424;6.762;2022-12-29T06:06:03;99915.38;;;10.94;77.83
9009;BME280;62813;51.424;6.762;2022-12-29T06:08:30;99918.03;;;10.92;78.10
9009;BME280;62813;51.424;6.762;2022-12-29T06:10:57;99925.97;;;10.89;78.97
9009;BME280;62813;51.424;6.762;2022-12-29T06:13:23;99933.84;;;10.87;79.67
9009;BME280;62813;51.424;6.762;2022-12-29T06:15:50;99930.56;;;10.84;79.82
9009;BME280;62813;51.424;6.762;2022-12-29T06:18:17;99934.28;;;10.80;80.44
9009;BME280;62813;51.424;6.762;2022-12-29T06:20:45;99938.72;;;10.78;80.77
9009;BME280;62813;51.424;6.762;2022-12-29T06:23:12;99944.91;;;10.75;81.21
9009;BME280;62813;51.424;6.762;2022-12-29T06:25:39;99957.13;;;10.73;81.39
9009;BME280;62813;51.424;6.762;2022-12-29T06:28:06;99953.69;;;10.73;81.72
9009;BME280;62813;51.424;6.762;2022-12-29T06:30:35;99958.72;;;10.76;81.60
9009;BME280;62813;51.424;6.762;2022-12-29T06:33:02;99961.41;;;10.74;81.38
9009;BME280;62813;51.424;6.762;2022-12-29T06:35:29;99973.34;;;10.77;81.14
9009;BME280;62813;51.424;6.762;2022-12-29T06:37:55;99969.00;;;10.77;81.16
9009;BME280;62813;51.424;6.762;2022-12-29T06:40:22;99968.75;;;10.82;80.37
9009;BME280;62813;51.424;6.762;2022-12-29T06:42:51;99955.88;;;10.80;80.03
9009;BME280;62813;51.424;6.762;2022-12-29T06:45:17;99950.69;;;10.80;80.03
9009;BME280;62813;51.424;6.762;2022-12-29T06:47:44;99958.38;;;10.82;79.26
9009;BME280;62813;51.424;6.762;2022-12-29T06:50:11;99953.19;;;10.82;79.07
9009;BME280;62813;51.424;6.762;2022-12-29T06:52:37;99960.81;;;10.85;78.60
9009;BME280;62813;51.424;6.762;2022-12-29T06:55:04;99962.50;;;10.86;78.33
9009;BME280;62813;51.424;6.762;2022-12-29T06:57:33;99961.47;;;10.88;78.49
9009;BME280;62813;51.424;6.762;2022-12-29T06:59:59;99964.81;;;10.91;77.79
9009;BME280;62813;51.424;6.762;2022-12-29T07:02:27;99960.34;;;10.94;77.91
9009;BME280;62813;51.424;6.762;2022-12-29T07:04:53;99956.00;;;10.95;77.25
9009;BME280;62813;51.424;6.762;2022-12-29T07:07:20;99959.50;;;10.94;77.32
9009;BME280;62813;51.424;6.762;2022-12-29T07:09:47;99968.88;;;10.96;77.20
9009;BME280;62813;51.424;6.762;2022-12-29T07:12:13;99962.03;;;10.95;77.10
9009;BME280;62813;51.424;6.762;2022-12-29T07:14:40;99984.31;;;10.99;77.03
9009;BME280;62813;51.424;6.762;2022-12-29T07:17:09;99970.41;;;11.00;76.92
9009;BME280;62813;51.424;6.762;2022-12-29T07:19:35;99973.75;;;11.02;76.47
9009;BME280;62813;51.424;6.762;2022-12-29T07:22:02;99989.13;;;11.05;75.83
9009;BME280;62813;51.424;6.762;2022-12-29T07:24:29;99996.09;;;11.05;76.19
9009;BME280;62813;51.424;6.762;2022-12-29T07:26:56;99980.59;;;11.03;75.93
9009;BME280;62813;51.424;6.762;2022-12-29T07:29:23;99996.28;;;11.02;76.24
9009;BME280;62813;51.424;6.762;2022-12-29T07:31:49;100003.22;;;11.01;75.46
9009;BME280;62813;51.424;6.762;2022-12-29T07:34:16;100001.56;;;11.00;75.57
9009;BME280;62813;51.424;6.762;2022-12-29T07:36:45;100005.09;;;10.99;75.37
9009;BME280;62813;51.424;6.762;2022-12-29T07:39:12;100007.81;;;10.96;75.13
9009;BME280;62813;51.424;6.762;2022-12-29T07:41:39;100012.88;;;10.99;75.21
9009;BME280;62813;51.424;6.762;2022-12-29T07:44:08;100012.78;;;11.01;74.83
9009;BME280;62813;51.424;6.762;2022-12-29T07:46:35;100023.31;;;10.98;74.22
9009;BME280;62813;51.424;6.762;2022-12-29T07:49:21;100019.66;;;11.02;72.86
9009;BME280;62813;51.424;6.762;2022-12-29T07:51:48;100027.34;;;11.03;72.89
9009;BME280;62813;51.424;6.762;2022-12-29T07:54:15;100022.16;;;11.03;73.09
9009;BME280;62813;51.424;6.762;2022-12-29T07:56:45;100025.69;;;11.02;72.49
9009;BME280;62813;51.424;6.762;2022-12-29T07:59:11;100031.94;;;10.98;72.94
9009;BME280;62813;51.424;6.762;2022-12-29T08:01:38;100037.41;;;10.94;73.51
9009;BME280;62813;51.424;6.762;2022-12-29T08:04:07;100020.81;;;10.96;72.50
9009;BME280;62813;51.424;6.762;2022-12-29T08:06:34;100021.56;;;10.98;72.67
9009;BME280;62813;51.424;6.762;2022-12-29T08:09:01;100026.94;;;10.95;72.68
9009;BME280;62813;51.424;6.762;2022-12-29T08:11:40;100038.25;;;10.94;72.50
9009;BME280;62813;51.424;6.762;2022-12-29T08:14:07;100044.28;;;10.95;72.41
9009;BME280;62813;51.424;6.762;2022-12-29T08:16:33;100046.94;;;10.93;72.72
9009;BME280;62813;51.424;6.762;2022-12-29T08:19:01;100058.22;;;10.92;72.63
9009;BME280;62813;51.424;6.762;2022-12-29T08:21:28;100059.09;;;10.93;72.77
9009;BME280;62813;51.424;6.762;2022-12-29T08:23:55;100054.78;;;10.92;72.53
9009;BME280;62813;51.424;6.762;2022-12-29T08:26:22;100051.22;;;10.94;72.47
9009;BME280;62813;51.424;6.762;2022-12-29T08:28:52;100066.03;;;10.92;72.46
9009;BME280;62813;51.424;6.762;2022-12-29T08:31:18;100056.50;;;10.93;72.44
9009;BME280;62813;51.424;6.762;2022-12-29T08:33:45;100060.69;;;10.95;72.54
9009;BME280;62813;51.424;6.762;2022-12-29T08:36:12;100061.59;;;10.94;72.59
9009;BME280;62813;51.424;6.762;2022-12-29T08:38:39;100065.03;;;10.95;72.86
9009;BME280;62813;51.424;6.762;2022-12-29T08:41:05;100073.66;;;10.95;72.93
9009;BME280;62813;51.424;6.762;2022-12-29T08:43:32;100071.91;;;10.96;72.81
9009;BME280;62813;51.424;6.762;2022-12-29T08:45:59;100072.84;;;10.95;72.99
9009;BME280;62813;51.424;6.762;2022-12-29T08:48:26;100071.06;;;10.95;73.41
9009;BME280;62813;51.424;6.762;2022-12-29T08:50:53;100081.47;;;10.95;73.19
9009;BME280;62813;51.424;6.762;2022-12-29T08:53:20;100059.94;;;10.93;73.49
9009;BME280;62813;51.424;6.762;2022-12-29T08:55:53;100076.41;;;10.92;72.25
9009;BME280;62813;51.424;6.762;2022-12-29T08:58:29;100071.16;;;10.94;71.83
9009;BME280;62813;51.424;6.762;2022-12-29T09:00:56;100075.44;;;10.95;71.78
9009;BME280;62813;51.424;6.762;2022-12-29T09:03:24;100089.34;;;10.94;71.58
9009;BME280;62813;51.424;6.762;2022-12-29T09:06:11;100088.50;;;10.93;71.35
9009;BME280;62813;51.424;6.762;2022-12-29T09:08:37;100088.50;;;10.93;71.81
9009;BME280;62813;51.424;6.762;2022-12-29T09:11:07;100096.03;;;10.98;72.07
9009;BME280;62813;51.424;6.762;2022-12-29T09:13:34;100094.25;;;10.98;71.89
9009;BME280;62813;51.424;6.762;2022-12-29T09:16:01;100084.47;;;11.03;72.31
9009;BME280;62813;51.424;6.762;2022-12-29T09:18:28;100100.84;;;11.21;73.42
9009;BME280;62813;51.424;6.762;2022-12-29T09:21:00;100100.59;;;11.26;73.06
9009;BME280;62813;51.424;6.762;2022-12-29T09:23:34;100093.47;;;11.29;73.00
9009;BME280;62813;51.424;6.762;2022-12-29T09:26:02;100094.81;;;11.36;71.54
9009;BME280;62813;51.424;6.762;2022-12-29T09:28:29;100105.31;;;11.35;71.76
9009;BME280;62813;51.424;6.762;2022-12-29T09:30:57;100098.81;;;11.26;70.86
9009;BME280;62813;51.424;6.762;2022-12-29T09:33:24;100101.78;;;11.20;72.37
9009;BME280;62813;51.424;6.762;2022-12-29T09:35:55;100109.81;;;11.15;71.85
9009;BME280;62813;51.424;6.762;2022-12-29T09:38:23;100098.72;;;11.12;71.61
9009;BME280;62813;51.424;6.762;2022-12-29T09:41:01;100099.66;;;11.11;71.83
9009;BME280;62813;51.424;6.762;2022-12-29T09:46:28;100107.34;;;11.12;70.78
9009;BME280;62813;51.424;6.762;2022-12-29T09:52:03;100097.56;;;11.02;70.74
9009;BME280;62813;51.424;6.762;2022-12-29T09:54:46;100101.91;;;11.01;70.37
9009;BME280;62813;51.424;6.762;2022-12-29T09:58:02;100105.25;;;11.03;70.31
9009;BME280;62813;51.424;6.762;2022-12-29T10:03:51;100095.69;;;11.04;69.93
9009;BME280;62813;51.424;6.762;2022-12-29T10:12:31;100094.13;;;11.01;69.15
9009;BME280;62813;51.424;6.762;2022-12-29T10:15:38;100104.25;;;11.06;68.38
9009;BME280;62813;51.424;6.762;2022-12-29T10:24:07;100117.16;;;11.07;67.47
9009;BME280;62813;51.424;6.762;2022-12-29T10:26:41;100121.59;;;11.05;67.83
9009;BME280;62813;51.424;6.762;2022-12-29T10:29:33;100108.69;;;11.04;67.45
9009;BME280;62813;51.424;6.762;2022-12-29T10:32:11;100127.63;;;11.06;67.08
9009;BME280;62813;51.424;6.762;2022-12-29T10:34:47;100119.00;;;11.05;66.80
9009;BME280;62813;51.424;6.762;2022-12-29T10:37:37;100121.59;;;11.05;66.69
9009;BME280;62813;51.424;6.762;2022-12-29T10:40:15;100120.59;;;11.08;66.01
9009;BME280;62813;51.424;6.762;2022-12-29T10:42:53;100138.59;;;11.11;66.16
9009;BME280;62813;51.424;6.762;2022-12-29T10:45:24;100139.75;;;11.05;66.61
9009;BME280;62813;51.424;6.762;2022-12-29T10:48:22;100146.66;;;11.06;66.68
9009;BME280;62813;51.424;6.762;2022-12-29T10:50:58;100139.75;;;11.05;66.64
9009;BME280;62813;51.424;6.762;2022-12-29T10:53:40;100143.97;;;11.08;66.57
9009;BME280;62813;51.424;6.762;2022-12-29T10:56:34;100150.94;;;11.07;67.13
9009;BME280;62813;51.424;6.762;2022-12-29T10:59:24;100163.75;;;11.10;67.10
9009;BME280;62813;51.424;6.762;2022-12-29T11:05:02;100163.59;;;11.13;66.90
9009;BME280;62813;51.424;6.762;2022-12-29T11:07:31;100158.41;;;11.13;66.67
9009;BME280;62813;51.424;6.762;2022-12-29T11:13:01;100167.03;;;11.14;66.35
9009;BME280;62813;51.424;6.762;2022-12-29T11:15:38;100154.06;;;11.14;66.28
9009;BME280;62813;51.424;6.762;2022-12-29T11:18:20;100166.94;;;11.15;66.74
9009;BME280;62813;51.424;6.762;2022-12-29T11:20:50;100187.72;;;11.15;66.83
9009;BME280;62813;51.424;6.762;2022-12-29T11:23:38;100178.00;;;11.19;66.22
9009;BME280;62813;51.424;6.762;2022-12-29T11:28:40;100191.78;;;11.21;65.43
9009;BME280;62813;51.424;6.762;2022-12-29T11:31:08;100175.09;;;11.25;66.10
9009;BME280;62813;51.424;6.762;2022-12-29T11:33:38;100188.06;;;11.25;65.70
9009;BME280;62813;51.424;6.762;2022-12-29T11:36:13;100181.97;;;11.26;66.01
9009;BME280;62813;51.424;6.762;2022-12-29T11:38:42;100171.41;;;11.29;65.72
9009;BME280;62813;51.424;6.762;2022-12-29T11:43:51;100206.16;;;11.27;64.97
9009;BME280;62813;51.424;6.762;2022-12-29T11:46:37;100198.47;;;11.25;65.24
9009;BME280;62813;51.424;6.762;2022-12-29T11:49:05;100200.13;;;11.26;64.41
9009;BME280;62813;51.424;6.762;2022-12-29T11:54:23;100202.69;;;11.28;65.59
9009;BME280;62813;51.424;6.762;2022-12-29T11:56:56;100204.34;;;11.29;65.41
9009;BME280;62813;51.424;6.762;2022-12-29T12:01:54;100198.84;;;11.35;64.92
9009;BME280;62813;51.424;6.762;2022-12-29T12:04:34;100212.91;;;11.31;65.04
9009;BME280;62813;51.424;6.762;2022-12-29T12:07:13;100215.28;;;11.35;64.96
9009;BME280;62813;51.424;6.762;2022-12-29T12:09:58;100210.22;;;11.32;65.49
9009;BME280;62813;51.424;6.762;2022-12-29T12:12:39;100207.03;;;11.27;65.36
9009;BME280;62813;51.424;6.762;2022-12-29T12:15:13;100214.84;;;11.27;65.49
9009;BME280;62813;51.424;6.762;2022-12-29T12:18:02;100212.16;;;11.29;64.94
9009;BME280;62813;51.424;6.762;2022-12-29T12:20:44;100208.78;;;11.27;65.20
9009;BME280;62813;51.424;6.762;2022-12-29T12:23:22;100225.47;;;11.23;65.64
9009;BME280;62813;51.424;6.762;2022-12-29T12:25:57;100218.28;;;11.28;65.23
9009;BME280;62813;51.424;6.762;2022-12-29T12:28:33;100231.41;;;11.25;65.28
9009;BME280;62813;51.424;6.762;2022-12-29T12:31:10;100223.59;;;11.25;65.13
9009;BME280;62813;51.424;6.762;2022-12-29T12:33:43;100240.88;;;11.26;65.69
9009;BME280;62813;51.424;6.762;2022-12-29T12:39:06;100251.34;;;11.24;65.34
9009;BME280;62813;51.424;6.762;2022-12-29T12:41:58;100237.53;;;11.24;65.32
9009;BME280;62813;51.424;6.762;2022-12-29T12:44:46;100242.09;;;11.19;65.20
9009;BME280;62813;51.424;6.762;2022-12-29T12:48:06;100242.06;;;11.20;65.56
9009;BME280;62813;51.424;6.762;2022-12-29T13:14:38;100257.25;;;11.28;65.55
9009;BME280;62813;51.424;6.762;2022-12-29T13:22:50;100277.50;;;11.21;65.97
9009;BME280;62813;51.424;6.762;2022-12-29T13:30:45;100263.28;;;11.11;66.37
9009;BME280;62813;51.424;6.762;2022-12-29T13:33:27;100273.59;;;11.12;66.59
9009;BME280;62813;51.424;6.762;2022-12-29T13:36:07;100282.91;;;11.17;66.11
9009;BME280;62813;51.424;6.762;2022-12-29T13:38:40;100285.59;;;11.15;66.71
9009;BME280;62813;51.424;6.762;2022-12-29T13:41:14;100283.00;;;11.15;66.66
9009;BME280;62813;51.424;6.762;2022-12-29T13:43:45;100283.22;;;11.10;66.46
9009;BME280;62813;51.424;6.762;2022-12-29T13:46:16;100283.13;;;11.12;66.18
9009;BME280;62813;51.424;6.762;2022-12-29T13:48:51;100297.28;;;11.06;66.51
9009;BME280;62813;51.424;6.762;2022-12-29T13:51:21;100291.41;;;11.03;67.42
9009;BME280;62813;51.424;6.762;2022-12-29T13:54:16;100296.69;;;11.01;68.08
9009;BME280;62813;51.424;6.762;2022-12-29T14:08:14;100283.25;;;10.92;68.19
9009;BME280;62813;51.424;6.762;2022-12-29T14:10:50;100305.88;;;10.89;68.82
9009;BME280;62813;51.424;6.762;2022-12-29T14:13:25;100305.88;;;10.89;68.66
9009;BME280;62813;51.424;6.762;2022-12-29T14:15:54;100312.81;;;10.89;68.82
9009;BME280;62813;51.424;6.762;2022-12-29T14:18:26;100303.38;;;10.88;69.38
9009;BME280;62813;51.424;6.762;2022-12-29T14:23:41;100300.84;;;10.86;68.19
9009;BME280;62813;51.424;6.762;2022-12-29T14:26:17;100302.59;;;10.86;68.07
9009;BME280;62813;51.424;6.762;2022-12-29T14:31:53;100317.41;;;10.84;68.03
9009;BME280;62813;51.424;6.762;2022-12-29T14:42:15;100321.63;;;10.86;66.81
9009;BME280;62813;51.424;6.762;2022-12-29T14:44:50;100321.69;;;10.85;66.81
9009;BME280;62813;51.424;6.762;2022-12-29T14:47:20;100324.44;;;10.82;66.97
9009;BME280;62813;51.424;6.762;2022-12-29T14:49:51;100315.13;;;10.78;67.10
9009;BME280;62813;51.424;6.762;2022-12-29T14:52:25;100320.31;;;10.78;67.24
9009;BME280;62813;51.424;6.762;2022-12-29T14:57:43;100317.94;;;10.73;67.36
9009;BME280;62813;51.424;6.762;2022-12-29T15:00:23;100309.31;;;10.73;67.62
9009;BME280;62813;51.424;6.762;2022-12-29T15:05:52;100325.00;;;10.70;67.20
9009;BME280;62813;51.424;6.762;2022-12-29T15:08:28;100337.09;;;10.71;67.47
9009;BME280;62813;51.424;6.762;2022-12-29T15:11:00;100339.69;;;10.71;67.44
9009;BME280;62813;51.424;6.762;2022-12-29T15:13:36;100335.25;;;10.73;67.29
9009;BME280;62813;51.424;6.762;2022-12-29T15:16:05;100337.16;;;10.69;67.67
9009;BME280;62813;51.424;6.762;2022-12-29T15:18:46;100345.66;;;10.73;67.14
9009;BME280;62813;51.424;6.762;2022-12-29T15:21:14;100349.28;;;10.69;67.80
9009;BME280;62813;51.424;6.762;2022-12-29T15:23:45;100338.16;;;10.67;68.17
9009;BME280;62813;51.424;6.762;2022-12-29T15:26:12;100341.75;;;10.64;69.05
9009;BME280;62813;51.424;6.762;2022-12-29T15:28:49;100347.06;;;10.61;69.71
9009;BME280;62813;51.424;6.762;2022-12-29T15:31:19;100341.78;;;10.63;69.10
9009;BME280;62813;51.424;6.762;2022-12-29T15:34:07;100346.38;;;10.57;68.36
9009;BME280;62813;51.424;6.762;2022-12-29T15:36:39;100336.00;;;10.57;68.33
9009;BME280;62813;51.424;6.762;2022-12-29T15:39:29;100347.28;;;10.56;67.96
9009;BME280;62813;51.424;6.762;2022-12-29T15:42:02;100348.19;;;10.55;67.82
9009;BME280;62813;51.424;6.762;2022-12-29T15:44:37;100348.25;;;10.54;67.70
9009;BME280;62813;51.424;6.762;2022-12-29T15:47:06;100363.16;;;10.50;67.71
9009;BME280;62813;51.424;6.762;2022-12-29T15:49:42;100362.25;;;10.51;68.01